sensor_id;sensor_type;location;lat;lon;timestamp;pressure;altitude;pressure_sealevel;temperature;humidity
55010;BME280;40903;51.638;7.528;2023-02-20T00:02:13;102043.34;;;6.08;100.00
55010;BME280;40903;51.638;7.528;2023-02-20T00:04:38;102036.50;;;6.06;100.00
55010;BME280;40903;51.638;7.528;2023-02-20T00:07:04;102034.53;;;6.13;100.00
55010;BME280;40903;51.638;7.528;2023-02-20T00:09:29;102030.66;;;6.09;100.00
55010;BME280;40903;51.638;7.528;2023-02-20T00:11:54;102031.09;;;6.06;100.00
55010;BME280;40903;51.638;7.528;2023-02-20T00:14:19;102021.31;;;6.05;100.00
55010;BME280;40903;51.638;7.528;2023-02-20T00:16:45;102012.59;;;6.03;100.00
55010;BME280;40903;51.638;7.528;2023-02-20T00:19:11;102011.41;;;5.99;100.00
55010;BME280;40903;51.638;7.528;2023-02-20T00:21:36;102001.38;;;5.99;100.00
55010;BME280;40903;51.638;7.528;2023-02-20T00:24:01;102008.09;;;5.97;100.00
55010;BME280;40903;51.638;7.528;2023-02-20T00:26:27;102013.88;;;6.00;100.00
55010;BME280;40903;51.638;7.528;2023-02-20T00:28:52;102004.34;;;5.98;100.00
55010;BME280;40903;51.638;7.528;2023-02-20T00:31:17;101998.69;;;5.99;100.00
55010;BME280;40903;51.638;7.528;2023-02-20T00:33:43;101988.09;;;5.98;100.00
55010;BME280;40903;51.638;7.528;2023-02-20T00:36:17;101988.56;;;5.95;100.00
55010;BME280;40903;51.638;7.528;2023-02-20T00:38:42;101984.63;;;5.91;100.00
55010;BME280;40903;51.638;7.528;2023-02-20T00:41:08;101982.41;;;5.88;100.00
55010;BME280;40903;51.638;7.528;2023-02-20T00:43:35;101980.88;;;5.92;100.00
55010;BME280;40903;51.638;7.528;2023-02-20T00:46:01;101982.78;;;5.91;100.00
55010;BME280;40903;51.638;7.528;2023-02-20T00:48:26;101974.66;;;5.91;100.00
55010;BME280;40903;51.638;7.528;2023-02-20T00:50:51;101961.56;;;5.88;100.00
55010;BME280;40903;51.638;7.528;2023-02-20T00:53:16;101966.06;;;5.94;100.00
55010;BME280;40903;51.638;7.528;2023-02-20T00:55:42;101965.25;;;5.94;100.00
55010;BME280;40903;51.638;7.528;2023-02-20T00:58:07;101965.59;;;5.97;100.00
55010;BME280;40903;51.638;7.528;2023-02-20T01:00:32;101958.06;;;5.99;100.00
55010;BME280;40903;51.638;7.528;2023-02-20T01:02:57;101947.63;;;6.03;100.00
55010;BME280;40903;51.638;7.528;2023-02-20T01:05:23;101942.44;;;6.01;100.00
55010;BME280;40903;51.638;7.528;2023-02-20T01:07:48;101943.25;;;6.02;100.00
55010;BME280;40903;51.638;7.528;2023-02-20T01:10:13;101936.09;;;6.07;100.00
55010;BME280;40903;51.638;7.528;2023-02-20T01:12:39;101926.78;;;6.03;100.00
55010;BME280;40903;51.638;7.528;2023-02-20T01:15:04;101926.03;;;5.96;100.00
55010;BME280;40903;51.638;7.528;2023-02-20T01:17:30;101935.97;;;6.02;100.00
55010;BME280;40903;51.638;7.528;2023-02-20T01:19:55;101932.66;;;6.00;100.00
55010;BME280;40903;51.638;7.528;2023-02-20T01:22:21;101942.66;;;6.00;100.00
55010;BME280;40903;51.638;7.528;2023-02-20T01:24:46;101933.47;;;6.01;100.00
55010;BME280;40903;51.638;7.528;2023-02-20T01:27:11;101930.56;;;6.02;100.00
55010;BME280;40903;51.638;7.528;2023-02-20T01:29:36;101931.16;;;6.04;100.00
55010;BME280;40903;51.638;7.528;2023-02-20T01:32:02;101934.06;;;6.03;100.00
55010;BME280;40903;51.638;7.528;2023-02-20T01:34:27;101921.13;;;6.05;100.00
55010;BME280;40903;51.638;7.528;2023-02-20T01:36:53;101921.28;;;6.10;100.00
55010;BME280;40903;51.638;7.528;2023-02-20T01:39:19;101924.56;;;6.12;100.00
55010;BME280;40903;51.638;7.528;2023-02-20T01:41:46;101919.97;;;6.12;100.00
55010;BME280;40903;51.638;7.528;2023-02-20T01:44:17;101920.13;;;6.17;100.00
55010;BME280;40903;51.638;7.528;2023-02-20T01:46:43;101917.84;;;6.14;100.00
55010;BME280;40903;51.638;7.528;2023-02-20T01:49:11;101909.97;;;6.13;100.00
55010;BME280;40903;51.638;7.528;2023-02-20T01:51:39;101898.69;;;6.16;100.00
55010;BME280;40903;51.638;7.528;2023-02-20T01:54:06;101899.84;;;6.20;100.00
55010;BME280;40903;51.638;7.528;2023-02-20T01:56:32;101889.03;;;6.20;100.00
55010;BME280;40903;51.638;7.528;2023-02-20T01:58:58;101886.91;;;6.22;100.00
55010;BME280;40903;51.638;7.528;2023-02-20T02:01:23;101881.75;;;6.20;100.00
55010;BME280;40903;51.638;7.528;2023-02-20T02:03:48;101876.91;;;6.22;100.00
55010;BME280;40903;51.638;7.528;2023-02-20T02:06:16;101868.03;;;6.15;100.00
55010;BME280;40903;51.638;7.528;2023-02-20T02:08:42;101872.06;;;6.13;100.00
55010;BME280;40903;51.638;7.528;2023-02-20T02:11:09;101871.13;;;6.19;100.00
55010;BME280;40903;51.638;7.528;2023-02-20T02:13:36;101859.69;;;6.17;100.00
55010;BME280;40903;51.638;7.528;2023-02-20T02:18:45;101850.03;;;6.21;100.00
55010;BME280;40903;51.638;7.528;2023-02-20T02:26:34;101859.81;;;6.10;100.00
55010;BME280;40903;51.638;7.528;2023-02-20T02:29:23;101844.13;;;6.01;100.00
55010;BME280;40903;51.638;7.528;2023-02-20T02:32:00;101838.13;;;5.99;100.00
55010;BME280;40903;51.638;7.528;2023-02-20T02:34:53;101827.22;;;6.05;100.00
55010;BME280;40903;51.638;7.528;2023-02-20T02:37:27;101824.88;;;6.09;100.00
55010;BME280;40903;51.638;7.528;2023-02-20T02:40:00;101822.16;;;6.09;100.00
55010;BME280;40903;51.638;7.528;2023-02-20T02:49:50;101813.31;;;6.02;100.00
55010;BME280;40903;51.638;7.528;2023-02-20T02:52:18;101803.53;;;6.01;100.00
55010;BME280;40903;51.638;7.528;2023-02-20T02:55:02;101803.66;;;6.06;100.00
55010;BME280;40903;51.638;7.528;2023-02-20T02:57:27;101802.47;;;6.02;100.00
55010;BME280;40903;51.638;7.528;2023-02-20T03:00:12;101787.50;;;5.99;100.00
55010;BME280;40903;51.638;7.528;2023-02-20T03:02:44;101791.16;;;5.93;100.00
55010;BME280;40903;51.638;7.528;2023-02-20T03:05:11;101789.41;;;5.99;100.00
55010;BME280;40903;51.638;7.528;2023-02-20T03:07:38;101779.88;;;5.96;100.00
55010;BME280;40903;51.638;7.528;2023-02-20T03:10:06;101782.34;;;5.98;100.00
55010;BME280;40903;51.638;7.528;2023-02-20T03:12:32;101761.59;;;5.92;100.00
55010;BME280;40903;51.638;7.528;2023-02-20T03:15:10;101760.56;;;5.93;100.00
55010;BME280;40903;51.638;7.528;2023-02-20T03:18:02;101768.34;;;5.89;100.00
55010;BME280;40903;51.638;7.528;2023-02-20T03:20:34;101761.03;;;5.90;100.00
55010;BME280;40903;51.638;7.528;2023-02-20T03:23:00;101763.25;;;5.93;100.00
55010;BME280;40903;51.638;7.528;2023-02-20T03:25:38;101760.56;;;5.93;100.00
55010;BME280;40903;51.638;7.528;2023-02-20T03:28:06;101761.75;;;5.97;100.00
55010;BME280;40903;51.638;7.528;2023-02-20T03:30:34;101764.09;;;6.05;100.00
55010;BME280;40903;51.638;7.528;2023-02-20T03:33:07;101760.31;;;6.06;100.00
55010;BME280;40903;51.638;7.528;2023-02-20T03:35:53;101753.75;;;6.02;100.00
55010;BME280;40903;51.638;7.528;2023-02-20T03:38:38;101752.91;;;6.13;100.00
55010;BME280;40903;51.638;7.528;2023-02-20T03:41:24;101750.81;;;6.15;100.00
55010;BME280;40903;51.638;7.528;2023-02-20T03:44:10;101759.50;;;6.17;100.00
55010;BME280;40903;51.638;7.528;2023-02-20T03:46:37;101755.75;;;6.18;100.00
55010;BME280;40903;51.638;7.528;2023-02-20T03:49:05;101755.75;;;6.18;100.00
55010;BME280;40903;51.638;7.528;2023-02-20T03:51:31;101752.09;;;6.12;100.00
55010;BME280;40903;51.638;7.528;2023-02-20T03:54:00;101760.09;;;6.19;100.00
55010;BME280;40903;51.638;7.528;2023-02-20T03:56:26;101759.50;;;6.17;100.00
55010;BME280;40903;51.638;7.528;2023-02-20T03:58:57;101762.56;;;6.20;100.00
55010;BME280;40903;51.638;7.528;2023-02-20T04:01:25;101755.25;;;6.21;100.00
55010;BME280;40903;51.638;7.528;2023-02-20T04:03:51;101752.31;;;6.22;100.00
55010;BME280;40903;51.638;7.528;2023-02-20T04:06:18;101752.69;;;6.26;100.00
55010;BME280;40903;51.638;7.528;2023-02-20T04:08:51;101752.44;;;6.16;100.00
55010;BME280;40903;51.638;7.528;2023-02-20T04:11:27;101750.44;;;6.11;100.00
55010;BME280;40903;51.638;7.528;2023-02-20T04:13:55;101748.09;;;6.15;100.00
55010;BME280;40903;51.638;7.528;2023-02-20T04:16:21;101752.91;;;6.13;100.00
55010;BME280;40903;51.638;7.528;2023-02-20T04:18:47;101753.28;;;6.16;100.00
55010;BME280;40903;51.638;7.528;2023-02-20T04:21:18;101754.47;;;6.09;100.00
55010;BME280;40903;51.638;7.528;2023-02-20T04:23:45;101756.22;;;6.03;100.00
55010;BME280;40903;51.638;7.528;2023-02-20T04:26:12;101750.81;;;6.03;100.00
55010;BME280;40903;51.638;7.528;2023-02-20T04:28:39;101753.25;;;6.05;100.00
55010;BME280;40903;51.638;7.528;2023-02-20T04:31:05;101753.84;;;6.07;100.00
55010;BME280;40903;51.638;7.528;2023-02-20T04:33:30;101753.53;;;6.03;100.00
55010;BME280;40903;51.638;7.528;2023-02-20T04:35:55;101743.38;;;6.10;100.00
55010;BME280;40903;51.638;7.528;2023-02-20T04:38:22;101741.97;;;6.08;100.00
55010;BME280;40903;51.638;7.528;2023-02-20T04:40:47;101735.25;;;5.99;100.00
55010;BME280;40903;51.638;7.528;2023-02-20T04:43:14;101737.72;;;5.89;100.00
55010;BME280;40903;51.638;7.528;2023-02-20T04:45:39;101740.56;;;5.94;100.00
55010;BME280;40903;51.638;7.528;2023-02-20T04:48:05;101739.50;;;5.95;100.00
55010;BME280;40903;51.638;7.528;2023-02-20T04:50:31;101736.09;;;5.88;100.00
55010;BME280;40903;51.638;7.528;2023-02-20T04:52:57;101725.97;;;5.95;100.00
55010;BME280;40903;51.638;7.528;2023-02-20T04:55:22;101734.09;;;5.95;100.00
55010;BME280;40903;51.638;7.528;2023-02-20T04:57:47;101729.03;;;5.87;100.00
55010;BME280;40903;51.638;7.528;2023-02-20T05:00:13;101721.84;;;5.92;100.00
55010;BME280;40903;51.638;7.528;2023-02-20T05:02:39;101721.75;;;5.87;100.00
55010;BME280;40903;51.638;7.528;2023-02-20T05:05:05;101721.00;;;5.92;100.00
55010;BME280;40903;51.638;7.528;2023-02-20T05:07:31;101719.47;;;5.84;100.00
55010;BME280;40903;51.638;7.528;2023-02-20T05:09:56;101714.19;;;5.89;100.00
55010;BME280;40903;51.638;7.528;2023-02-20T05:12:21;101709.59;;;5.90;100.00
55010;BME280;40903;51.638;7.528;2023-02-20T05:14:47;101703.97;;;5.91;100.00
55010;BME280;40903;51.638;7.528;2023-02-20T05:17:12;101712.31;;;5.90;100.00
55010;BME280;40903;51.638;7.528;2023-02-20T05:19:37;101702.31;;;6.02;100.00
55010;BME280;40903;51.638;7.528;2023-02-20T05:22:02;101714.91;;;5.96;100.00
55010;BME280;40903;51.638;7.528;2023-02-20T05:24:47;101709.00;;;5.99;100.00
55010;BME280;40903;51.638;7.528;2023-02-20T05:27:13;101700.28;;;5.97;100.00
55010;BME280;40903;51.638;7.528;2023-02-20T05:29:46;101695.47;;;5.99;100.00
55010;BME280;40903;51.638;7.528;2023-02-20T05:32:12;101703.47;;;6.06;100.00
55010;BME280;40903;51.638;7.528;2023-02-20T05:34:37;101697.47;;;6.04;100.00
55010;BME280;40903;51.638;7.528;2023-02-20T05:37:02;101703.03;;;6.09;100.00
55010;BME280;40903;51.638;7.528;2023-02-20T05:39:28;101697.44;;;6.15;100.00
55010;BME280;40903;51.638;7.528;2023-02-20T05:41:53;101691.81;;;6.17;100.00
55010;BME280;40903;51.638;7.528;2023-02-20T05:44:18;101684.84;;;6.21;100.00
55010;BME280;40903;51.638;7.528;2023-02-20T05:46:43;101679.44;;;6.21;100.00
55010;BME280;40903;51.638;7.528;2023-02-20T05:49:09;101681.19;;;6.15;100.00
55010;BME280;40903;51.638;7.528;2023-02-20T05:51:34;101680.28;;;6.21;100.00
55010;BME280;40903;51.638;7.528;2023-02-20T05:53:59;101673.44;;;6.19;100.00
55010;BME280;40903;51.638;7.528;2023-02-20T05:56:25;101674.84;;;6.21;100.00
55010;BME280;40903;51.638;7.528;2023-02-20T05:58:50;101668.38;;;6.22;100.00
55010;BME280;40903;51.638;7.528;2023-02-20T06:01:19;101662.25;;;6.27;100.00
55010;BME280;40903;51.638;7.528;2023-02-20T06:03:45;101674.72;;;6.28;100.00
55010;BME280;40903;51.638;7.528;2023-02-20T06:06:10;101655.41;;;6.24;100.00
55010;BME280;40903;51.638;7.528;2023-02-20T06:08:36;101658.13;;;6.24;100.00
55010;BME280;40903;51.638;7.528;2023-02-20T06:11:01;101663.91;;;6.28;100.00
55010;BME280;40903;51.638;7.528;2023-02-20T06:13:26;101656.13;;;6.20;100.00
55010;BME280;40903;51.638;7.528;2023-02-20T06:15:51;101666.25;;;6.24;100.00
55010;BME280;40903;51.638;7.528;2023-02-20T06:18:16;101666.47;;;6.23;100.00
55010;BME280;40903;51.638;7.528;2023-02-20T06:20:42;101669.09;;;6.18;100.00
55010;BME280;40903;51.638;7.528;2023-02-20T06:23:07;101681.91;;;6.22;100.00
55010;BME280;40903;51.638;7.528;2023-02-20T06:25:32;101680.25;;;6.33;100.00
55010;BME280;40903;51.638;7.528;2023-02-20T06:27:57;101671.31;;;6.32;100.00
55010;BME280;40903;51.638;7.528;2023-02-20T06:30:22;101677.78;;;6.31;100.00
55010;BME280;40903;51.638;7.528;2023-02-20T06:32:48;101684.41;;;6.24;100.00
55010;BME280;40903;51.638;7.528;2023-02-20T06:35:13;101684.84;;;6.21;100.00
55010;BME280;40903;51.638;7.528;2023-02-20T06:37:38;101693.09;;;6.26;100.00
55010;BME280;40903;51.638;7.528;2023-02-20T06:40:04;101697.81;;;6.19;100.00
55010;BME280;40903;51.638;7.528;2023-02-20T06:42:29;101711.81;;;6.16;100.00
55010;BME280;40903;51.638;7.528;2023-02-20T06:44:54;101714.06;;;6.19;100.00
55010;BME280;40903;51.638;7.528;2023-02-20T06:47:20;101717.34;;;6.21;100.00
55010;BME280;40903;51.638;7.528;2023-02-20T06:49:45;101722.19;;;6.19;100.00
55010;BME280;40903;51.638;7.528;2023-02-20T06:52:11;101729.94;;;6.15;100.00
55010;BME280;40903;51.638;7.528;2023-02-20T06:54:37;101730.19;;;6.14;100.00
55010;BME280;40903;51.638;7.528;2023-02-20T06:57:03;101725.94;;;6.18;100.00
55010;BME280;40903;51.638;7.528;2023-02-20T06:59:28;101738.44;;;6.19;100.00
55010;BME280;40903;51.638;7.528;2023-02-20T07:01:53;101723.50;;;6.16;100.00
55010;BME280;40903;51.638;7.528;2023-02-20T07:04:20;101716.88;;;6.12;100.00
55010;BME280;40903;51.638;7.528;2023-02-20T07:06:45;101722.56;;;6.11;100.00
55010;BME280;40903;51.638;7.528;2023-02-20T07:09:11;101729.34;;;6.13;100.00
55010;BME280;40903;51.638;7.528;2023-02-20T07:11:37;101721.25;;;6.13;100.00
55010;BME280;40903;51.638;7.528;2023-02-20T07:14:02;101713.38;;;6.12;100.00
55010;BME280;40903;51.638;7.528;2023-02-20T07:16:28;101718.31;;;6.15;100.00
55010;BME280;40903;51.638;7.528;2023-02-20T07:18:55;101725.84;;;6.13;100.00
55010;BME280;40903;51.638;7.528;2023-02-20T07:21:20;101709.13;;;6.16;100.00
55010;BME280;40903;51.638;7.528;2023-02-20T07:23:45;101721.38;;;6.18;100.00
55010;BME280;40903;51.638;7.528;2023-02-20T07:26:17;101720.53;;;6.18;100.00
55010;BME280;40903;51.638;7.528;2023-02-20T07:28:43;101716.75;;;6.19;100.00
55010;BME280;40903;51.638;7.528;2023-02-20T07:31:08;101715.13;;;6.18;100.00
55010;BME280;40903;51.638;7.528;2023-02-20T07:33:33;101722.44;;;6.17;100.00
55010;BME280;40903;51.638;7.528;2023-02-20T07:35:58;101718.31;;;6.15;100.00
55010;BME280;40903;51.638;7.528;2023-02-20T07:38:23;101718.19;;;6.21;100.00
55010;BME280;40903;51.638;7.528;2023-02-20T07:40:49;101720.53;;;6.18;100.00
55010;BME280;40903;51.638;7.528;2023-02-20T07:43:14;101715.38;;;6.16;100.00
55010;BME280;40903;51.638;7.528;2023-02-20T07:45:39;101710.75;;;6.17;100.00
55010;BME280;40903;51.638;7.528;2023-02-20T07:48:04;101730.66;;;6.22;100.00
55010;BME280;40903;51.638;7.528;2023-02-20T07:50:30;101729.25;;;6.31;100.00
55010;BME280;40903;51.638;7.528;2023-02-20T07:52:55;101730.91;;;6.32;100.00
55010;BME280;40903;51.638;7.528;2023-02-20T07:55:20;101732.28;;;6.35;100.00
55010;BME280;40903;51.638;7.528;2023-02-20T07:57:46;101725.81;;;6.36;100.00
55010;BME280;40903;51.638;7.528;2023-02-20T08:00:15;101734.50;;;6.38;100.00
55010;BME280;40903;51.638;7.528;2023-02-20T08:02:40;101739.94;;;6.38;100.00
55010;BME280;40903;51.638;7.528;2023-02-20T08:05:06;101736.50;;;6.42;100.00
55010;BME280;40903;51.638;7.528;2023-02-20T08:07:31;101741.94;;;6.42;100.00
55010;BME280;40903;51.638;7.528;2023-02-20T08:09:56;101733.47;;;6.39;100.00
55010;BME280;40903;51.638;7.528;2023-02-20T08:12:21;101740.63;;;6.45;100.00
55010;BME280;40903;51.638;7.528;2023-02-20T08:14:48;101739.56;;;6.46;100.00
55010;BME280;40903;51.638;7.528;2023-02-20T08:17:14;101742.88;;;6.48;100.00
55010;BME280;40903;51.638;7.528;2023-02-20T08:19:39;101741.94;;;6.54;100.00
55010;BME280;40903;51.638;7.528;2023-02-20T08:22:04;101744.75;;;6.59;100.00
55010;BME280;40903;51.638;7.528;2023-02-20T08:24:29;101727.53;;;6.53;100.00
55010;BME280;40903;51.638;7.528;2023-02-20T08:26:54;101732.59;;;6.61;100.00
55010;BME280;40903;51.638;7.528;2023-02-20T08:29:20;101721.28;;;6.64;100.00
55010;BME280;40903;51.638;7.528;2023-02-20T08:31:45;101717.25;;;6.67;100.00
55010;BME280;40903;51.638;7.528;2023-02-20T08:34:10;101724.47;;;6.61;100.00
55010;BME280;40903;51.638;7.528;2023-02-20T08:36:35;101723.84;;;6.71;100.00
55010;BME280;40903;51.638;7.528;2023-02-20T08:39:01;101717.25;;;6.67;100.00
55010;BME280;40903;51.638;7.528;2023-02-20T08:41:27;101708.53;;;6.65;100.00
55010;BME280;40903;51.638;7.528;2023-02-20T08:43:53;101711.03;;;6.66;100.00
55010;BME280;40903;51.638;7.528;2023-02-20T08:46:18;101703.47;;;6.68;100.00
55010;BME280;40903;51.638;7.528;2023-02-20T08:48:43;101702.63;;;6.68;100.00
55010;BME280;40903;51.638;7.528;2023-02-20T08:51:09;101694.03;;;6.71;100.00
55010;BME280;40903;51.638;7.528;2023-02-20T08:53:36;101699.78;;;6.74;100.00
55010;BME280;40903;51.638;7.528;2023-02-20T08:56:01;101696.84;;;6.76;100.00
55010;BME280;40903;51.638;7.528;2023-02-20T08:58:28;101696.63;;;6.77;100.00
55010;BME280;40903;51.638;7.528;2023-02-20T09:00:53;101698.34;;;6.83;100.00
55010;BME280;40903;51.638;7.528;2023-02-20T09:03:19;101696.22;;;6.85;100.00
55010;BME280;40903;51.638;7.528;2023-02-20T09:05:44;101700.56;;;6.86;100.00
55010;BME280;40903;51.638;7.528;2023-02-20T09:08:10;101688.78;;;6.92;100.00
55010;BME280;40903;51.638;7.528;2023-02-20T09:10:35;101691.34;;;6.99;100.00
55010;BME280;40903;51.638;7.528;2023-02-20T09:13:01;101684.00;;;6.99;100.00
55010;BME280;40903;51.638;7.528;2023-02-20T09:15:26;101693.22;;;6.98;100.00
55010;BME280;40903;51.638;7.528;2023-02-20T09:17:52;101686.56;;;7.06;100.00
55010;BME280;40903;51.638;7.528;2023-02-20T09:20:17;101683.03;;;7.05;100.00
55010;BME280;40903;51.638;7.528;2023-02-20T09:22:44;101678.78;;;7.09;100.00
55010;BME280;40903;51.638;7.528;2023-02-20T09:25:10;101684.06;;;7.16;100.00
55010;BME280;40903;51.638;7.528;2023-02-20T09:27:36;101684.88;;;7.16;100.00
55010;BME280;40903;51.638;7.528;2023-02-20T09:30:01;101688.41;;;7.17;100.00
55010;BME280;40903;51.638;7.528;2023-02-20T09:32:27;101674.84;;;7.17;100.00
55010;BME280;40903;51.638;7.528;2023-02-20T09:34:52;101683.28;;;7.20;100.00
55010;BME280;40903;51.638;7.528;2023-02-20T09:37:17;101695.06;;;7.26;100.00
55010;BME280;40903;51.638;7.528;2023-02-20T09:39:42;101688.72;;;7.20;100.00
55010;BME280;40903;51.638;7.528;2023-02-20T09:49:44;101692.13;;;7.27;100.00
55010;BME280;40903;51.638;7.528;2023-02-20T09:52:11;101686.13;;;7.25;100.00
55010;BME280;40903;51.638;7.528;2023-02-20T09:54:39;101685.28;;;7.25;100.00
55010;BME280;40903;51.638;7.528;2023-02-20T09:57:09;101686.63;;;7.22;100.00
55010;BME280;40903;51.638;7.528;2023-02-20T09:59:43;101682.56;;;7.25;100.00
55010;BME280;40903;51.638;7.528;2023-02-20T10:02:14;101679.34;;;7.28;100.00
55010;BME280;40903;51.638;7.528;2023-02-20T10:04:47;101686.94;;;7.26;100.00
55010;BME280;40903;51.638;7.528;2023-02-20T10:09:47;101678.31;;;7.29;100.00
55010;BME280;40903;51.638;7.528;2023-02-20T10:12:19;101686.47;;;7.29;100.00
55010;BME280;40903;51.638;7.528;2023-02-20T10:14:51;101676.03;;;7.37;100.00
55010;BME280;40903;51.638;7.528;2023-02-20T10:17:39;101670.91;;;7.41;100.00
55010;BME280;40903;51.638;7.528;2023-02-20T10:22:35;101676.91;;;7.43;100.00
55010;BME280;40903;51.638;7.528;2023-02-20T10:30:03;101663.56;;;7.58;100.00
55010;BME280;40903;51.638;7.528;2023-02-20T10:32:35;101676.13;;;7.59;100.00
55010;BME280;40903;51.638;7.528;2023-02-20T10:35:15;101658.16;;;7.58;100.00
55010;BME280;40903;51.638;7.528;2023-02-20T10:37:44;101661.78;;;7.63;100.00
55010;BME280;40903;51.638;7.528;2023-02-20T10:42:58;101653.41;;;7.65;100.00
55010;BME280;40903;51.638;7.528;2023-02-20T10:45:50;101663.00;;;7.72;100.00
55010;BME280;40903;51.638;7.528;2023-02-20T10:48:12;101663.25;;;7.70;100.00
55010;BME280;40903;51.638;7.528;2023-02-20T10:53:24;101645.72;;;7.78;100.00
55010;BME280;40903;51.638;7.528;2023-02-20T10:55:53;101657.97;;;7.80;100.00
55010;BME280;40903;51.638;7.528;2023-02-20T10:58:29;101666.47;;;7.84;100.00
55010;BME280;40903;51.638;7.528;2023-02-20T11:00:59;101657.81;;;7.87;100.00
55010;BME280;40903;51.638;7.528;2023-02-20T11:03:29;101641.00;;;7.90;100.00
55010;BME280;40903;51.638;7.528;2023-02-20T11:05:56;101638.28;;;7.90;100.00
55010;BME280;40903;51.638;7.528;2023-02-20T11:08:25;101629.91;;;7.91;100.00
55010;BME280;40903;51.638;7.528;2023-02-20T11:10:52;101620.41;;;7.94;100.00
55010;BME280;40903;51.638;7.528;2023-02-20T11:13:19;101606.53;;;7.90;100.00
55010;BME280;40903;51.638;7.528;2023-02-20T11:15:47;101603.66;;;7.97;100.00
55010;BME280;40903;51.638;7.528;2023-02-20T11:18:18;101604.50;;;8.02;100.00
55010;BME280;40903;51.638;7.528;2023-02-20T11:20:45;101608.06;;;8.03;100.00
55010;BME280;40903;51.638;7.528;2023-02-20T11:23:31;101611.00;;;8.01;100.00
55010;BME280;40903;51.638;7.528;2023-02-20T11:25:55;101622.44;;;8.03;100.00
55010;BME280;40903;51.638;7.528;2023-02-20T11:28:36;101628.38;;;8.00;100.00
55010;BME280;40903;51.638;7.528;2023-02-20T11:31:03;101638.44;;;8.00;100.00
55010;BME280;40903;51.638;7.528;2023-02-20T11:33:29;101639.44;;;7.94;100.00
55010;BME280;40903;51.638;7.528;2023-02-20T11:38:34;101645.94;;;7.93;100.00
55010;BME280;40903;51.638;7.528;2023-02-20T11:43:34;101638.34;;;7.95;100.00
55010;BME280;40903;51.638;7.528;2023-02-20T11:46:06;101640.00;;;7.96;100.00
55010;BME280;40903;51.638;7.528;2023-02-20T11:48:32;101643.72;;;7.90;100.00
55010;BME280;40903;51.638;7.528;2023-02-20T11:50:57;101660.34;;;7.93;100.00
55010;BME280;40903;51.638;7.528;2023-02-20T11:53:23;101649.81;;;7.97;100.00
55010;BME280;40903;51.638;7.528;2023-02-20T11:55:49;101654.41;;;7.96;100.00
55010;BME280;40903;51.638;7.528;2023-02-20T11:58:24;101654.34;;;7.91;100.00
55010;BME280;40903;51.638;7.528;2023-02-20T12:00:51;101659.50;;;7.93;100.00
55010;BME280;40903;51.638;7.528;2023-02-20T12:03:19;101657.63;;;7.93;100.00
55010;BME280;40903;51.638;7.528;2023-02-20T12:05:46;101659.50;;;7.93;100.00
55010;BME280;40903;51.638;7.528;2023-02-20T12:08:33;101641.84;;;7.90;100.00
55010;BME280;40903;51.638;7.528;2023-02-20T12:11:00;101651.38;;;7.93;100.00
55010;BME280;40903;51.638;7.528;2023-02-20T12:13:35;101651.38;;;7.93;100.00
55010;BME280;40903;51.638;7.528;2023-02-20T12:19:02;101628.38;;;8.00;100.00
55010;BME280;40903;51.638;7.528;2023-02-20T12:26:53;101610.22;;;8.01;100.00
55010;BME280;40903;51.638;7.528;2023-02-20T12:29:22;101602.88;;;8.01;100.00
55010;BME280;40903;51.638;7.528;2023-02-20T12:34:24;101584.41;;;8.03;100.00
55010;BME280;40903;51.638;7.528;2023-02-20T12:37:00;101583.28;;;7.99;100.00
55010;BME280;40903;51.638;7.528;2023-02-20T12:49:57;101563.00;;;8.07;100.00
55010;BME280;40903;51.638;7.528;2023-02-20T12:57:52;101552.16;;;8.07;100.00
55010;BME280;40903;51.638;7.528;2023-02-20T13:00:37;101555.75;;;8.12;100.00
55010;BME280;40903;51.638;7.528;2023-02-20T13:05:29;101577.25;;;8.14;100.00
55010;BME280;40903;51.638;7.528;2023-02-20T13:07:57;101571.25;;;8.12;100.00
55010;BME280;40903;51.638;7.528;2023-02-20T13:10:34;101566.63;;;8.12;100.00
55010;BME280;40903;51.638;7.528;2023-02-20T13:13:07;101585.47;;;8.19;100.00
55010;BME280;40903;51.638;7.528;2023-02-20T13:15:40;101577.38;;;8.24;100.00
55010;BME280;40903;51.638;7.528;2023-02-20T13:18:16;101562.44;;;8.21;100.00
55010;BME280;40903;51.638;7.528;2023-02-20T13:20:46;101558.34;;;8.24;100.00
55010;BME280;40903;51.638;7.528;2023-02-20T13:25:46;101575.50;;;8.24;100.00
55010;BME280;40903;51.638;7.528;2023-02-20T13:30:38;101576.06;;;8.26;100.00
55010;BME280;40903;51.638;7.528;2023-02-20T13:33:18;101579.28;;;8.23;100.00
55010;BME280;40903;51.638;7.528;2023-02-20T13:35:52;101573.34;;;8.26;100.00
55010;BME280;40903;51.638;7.528;2023-02-20T13:38:19;101573.78;;;8.18;100.00
55010;BME280;40903;51.638;7.528;2023-02-20T13:51:34;101530.38;;;8.23;100.00
55010;BME280;40903;51.638;7.528;2023-02-20T13:56:23;101533.09;;;8.23;100.00
55010;BME280;40903;51.638;7.528;2023-02-20T13:58:49;101529.53;;;8.23;100.00
55010;BME280;40903;51.638;7.528;2023-02-20T14:01:15;101542.88;;;8.24;100.00
55010;BME280;40903;51.638;7.528;2023-02-20T14:03:40;101543.41;;;8.21;100.00
55010;BME280;40903;51.638;7.528;2023-02-20T14:08:35;101516.25;;;8.21;100.00
55010;BME280;40903;51.638;7.528;2023-02-20T14:11:05;101520.03;;;8.20;100.00
55010;BME280;40903;51.638;7.528;2023-02-20T14:13:30;101524.06;;;8.18;100.00
55010;BME280;40903;51.638;7.528;2023-02-20T14:15:57;101514.59;;;8.20;100.00
55010;BME280;40903;51.638;7.528;2023-02-20T14:18:26;101524.38;;;8.21;100.00
55010;BME280;40903;51.638;7.528;2023-02-20T14:20:55;101537.47;;;8.24;100.00
55010;BME280;40903;51.638;7.528;2023-02-20T14:23:26;101538.47;;;8.18;100.00
55010;BME280;40903;51.638;7.528;2023-02-20T14:25:59;101531.13;;;8.19;100.00
55010;BME280;40903;51.638;7.528;2023-02-20T14:28:24;101524.00;;;8.13;100.00